<?xml version="1.0" encoding="UTF-8" standalone="no" ?>
<gpx xmlns="http://www.topografix.com/GPX/1/1" xmlns:xsi="http://www.w3.org/2001/XMLSchema-instance" xsi:schemaLocation="http://www.topografix.com/GPX/1/1 http://www.topografix.com/GPX/1/1/gpx.xsd" version="1.1" creator="VisuGPX - https://www.visugpx.com">
  <metadata>
    <name>abbaretz_mine_7-9km</name>
    <desc><![CDATA[groupeM1 gnerando]]></desc>
  </metadata>
  <trk>
    <name><![CDATA[Abbaretz_Mine_6.5km-5602014]]></name>
    <extensions>
      <line xmlns="http://www.topografix.com/GPX/gpx_style/0/2">
        <color>FF0000</color>
        <width>4</width>
      </line>
    </extensions>
    <trkseg>
      <trkpt lat="47.55388" lon="-1.53182">
        <ele>69</ele>
        <time>2023-10-29T17:00:23Z</time>
      </trkpt>
      <trkpt lat="47.55414" lon="-1.53306">
        <ele>66</ele>
        <time>2023-10-29T17:02:20Z</time>
      </trkpt>
      <trkpt lat="47.55466" lon="-1.53341">
        <ele>65</ele>
        <time>2023-10-29T17:03:36Z</time>
      </trkpt>
      <trkpt lat="47.55507" lon="-1.53323">
        <ele>64</ele>
        <time>2023-10-29T17:04:33Z</time>
      </trkpt>
      <trkpt lat="47.55567" lon="-1.53478">
        <ele>63</ele>
        <time>2023-10-29T17:07:14Z</time>
      </trkpt>
      <trkpt lat="47.55596" lon="-1.53564">
        <ele>61</ele>
        <time>2023-10-29T17:08:41Z</time>
      </trkpt>
      <trkpt lat="47.55709" lon="-1.53722">
        <ele>63</ele>
        <time>2023-10-29T17:12:08Z</time>
      </trkpt>
      <trkpt lat="47.55776" lon="-1.5377">
        <ele>61</ele>
        <time>2023-10-29T17:13:47Z</time>
      </trkpt>
      <trkpt lat="47.55764" lon="-1.53873">
        <ele>61</ele>
        <time>2023-10-29T17:15:22Z</time>
      </trkpt>
      <trkpt lat="47.5575" lon="-1.53946">
        <ele>62</ele>
        <time>2023-10-29T17:16:30Z</time>
      </trkpt>
      <trkpt lat="47.55782" lon="-1.54177">
        <ele>59</ele>
        <time>2023-10-29T17:20:02Z</time>
      </trkpt>
      <trkpt lat="47.55903" lon="-1.54182">
        <ele>57</ele>
        <time>2023-10-29T17:22:44Z</time>
      </trkpt>
      <trkpt lat="47.55985" lon="-1.54195">
        <ele>63</ele>
        <time>2023-10-29T17:24:34Z</time>
      </trkpt>
      <trkpt lat="47.55993" lon="-1.54143">
        <ele>59</ele>
        <time>2023-10-29T17:25:22Z</time>
      </trkpt>
      <trkpt lat="47.55944" lon="-1.54104">
        <ele>57</ele>
        <time>2023-10-29T17:26:36Z</time>
      </trkpt>
      <trkpt lat="47.5595" lon="-1.53697">
        <ele>54</ele>
        <time>2023-10-29T17:32:43Z</time>
      </trkpt>
      <trkpt lat="47.56196" lon="-1.53581">
        <ele>48</ele>
        <time>2023-10-29T17:38:27Z</time>
      </trkpt>
      <trkpt lat="47.56526" lon="-1.53735">
        <ele>46</ele>
        <time>2023-10-29T17:46:09Z</time>
      </trkpt>
      <trkpt lat="47.56523" lon="-1.54122">
        <ele>41</ele>
        <time>2023-10-29T17:51:57Z</time>
      </trkpt>
      <trkpt lat="47.56419" lon="-1.54207">
        <ele>43</ele>
        <time>2023-10-29T17:54:36Z</time>
      </trkpt>
      <trkpt lat="47.56448" lon="-1.5428">
        <ele>43</ele>
        <time>2023-10-29T17:55:52Z</time>
      </trkpt>
      <trkpt lat="47.56349" lon="-1.54405">
        <ele>45</ele>
        <time>2023-10-29T17:58:46Z</time>
      </trkpt>
      <trkpt lat="47.56271" lon="-1.54542">
        <ele>48</ele>
        <time>2023-10-29T18:01:27Z</time>
      </trkpt>
      <trkpt lat="47.56121" lon="-1.54602">
        <ele>49</ele>
        <time>2023-10-29T18:04:54Z</time>
      </trkpt>
      <trkpt lat="47.5606" lon="-1.54568">
        <ele>51</ele>
        <time>2023-10-29T18:06:21Z</time>
      </trkpt>
      <trkpt lat="47.55915" lon="-1.54628">
        <ele>57</ele>
        <time>2023-10-29T18:09:42Z</time>
      </trkpt>
      <trkpt lat="47.55918" lon="-1.54383">
        <ele>58</ele>
        <time>2023-10-29T18:13:23Z</time>
      </trkpt>
      <trkpt lat="47.55944" lon="-1.5431">
        <ele>62</ele>
        <time>2023-10-29T18:14:37Z</time>
      </trkpt>
      <trkpt lat="47.55883" lon="-1.54164">
        <ele>56</ele>
        <time>2023-10-29T18:17:12Z</time>
      </trkpt>
      <trkpt lat="47.55785" lon="-1.54216">
        <ele>60</ele>
        <time>2023-10-29T18:19:31Z</time>
      </trkpt>
      <trkpt lat="47.55817" lon="-1.54349">
        <ele>63</ele>
        <time>2023-10-29T18:21:38Z</time>
      </trkpt>
      <trkpt lat="47.55819" lon="-1.54572">
        <ele>62</ele>
        <time>2023-10-29T18:24:59Z</time>
      </trkpt>
      <trkpt lat="47.55828" lon="-1.54679">
        <ele>62</ele>
        <time>2023-10-29T18:26:36Z</time>
      </trkpt>
      <trkpt lat="47.5586" lon="-1.5474">
        <ele>59</ele>
        <time>2023-10-29T18:27:45Z</time>
      </trkpt>
      <trkpt lat="47.55802" lon="-1.54804">
        <ele>62</ele>
        <time>2023-10-29T18:29:22Z</time>
      </trkpt>
      <trkpt lat="47.55779" lon="-1.5501">
        <ele>56</ele>
        <time>2023-10-29T18:32:30Z</time>
      </trkpt>
      <trkpt lat="47.55582" lon="-1.54791">
        <ele>64</ele>
        <time>2023-10-29T18:37:59Z</time>
      </trkpt>
      <trkpt lat="47.55573" lon="-1.54624">
        <ele>66</ele>
        <time>2023-10-29T18:40:30Z</time>
      </trkpt>
      <trkpt lat="47.55565" lon="-1.54315">
        <ele>65</ele>
        <time>2023-10-29T18:45:08Z</time>
      </trkpt>
      <trkpt lat="47.55466" lon="-1.53997">
        <ele>64</ele>
        <time>2023-10-29T18:50:23Z</time>
      </trkpt>
      <trkpt lat="47.55295" lon="-1.53967">
        <ele>70</ele>
        <time>2023-10-29T18:54:13Z</time>
      </trkpt>
      <trkpt lat="47.55263" lon="-1.53898">
        <ele>71</ele>
        <time>2023-10-29T18:55:29Z</time>
      </trkpt>
      <trkpt lat="47.55174" lon="-1.5386">
        <ele>74</ele>
        <time>2023-10-29T18:57:32Z</time>
      </trkpt>
      <trkpt lat="47.55217" lon="-1.53628">
        <ele>73</ele>
        <time>2023-10-29T19:01:09Z</time>
      </trkpt>
      <trkpt lat="47.55232" lon="-1.53439">
        <ele>72</ele>
        <time>2023-10-29T19:04:00Z</time>
      </trkpt>
      <trkpt lat="47.55269" lon="-1.53388">
        <ele>72</ele>
        <time>2023-10-29T19:05:08Z</time>
      </trkpt>
      <trkpt lat="47.55313" lon="-1.53293">
        <ele>71</ele>
        <time>2023-10-29T19:06:52Z</time>
      </trkpt>
      <trkpt lat="47.55356" lon="-1.53298">
        <ele>69</ele>
        <time>2023-10-29T19:07:49Z</time>
      </trkpt>
      <trkpt lat="47.55336" lon="-1.53186">
        <ele>72</ele>
        <time>2023-10-29T19:09:33Z</time>
      </trkpt>
    </trkseg>
  </trk>
</gpx>